createdAt,value
2018-06-20T00:01:27.361Z,7.43
2018-06-20T00:03:55.905Z,7.87
2018-06-20T00:06:24.492Z,7.43
2018-06-20T00:08:53.507Z,7.50
2018-06-20T00:11:24.012Z,7.87
2018-06-20T00:13:53.345Z,7.13
2018-06-20T00:16:21.895Z,6.73
2018-06-20T00:18:50.680Z,7.27
2018-06-20T00:21:19.164Z,7.57
2018-06-20T00:23:47.640Z,7.20
2018-06-20T00:26:16.330Z,7.60
2018-06-20T00:28:44.909Z,6.97
2018-06-20T00:31:13.312Z,7.17
2018-06-20T00:33:41.872Z,7.87
2018-06-20T00:36:10.356Z,7.97
2018-06-20T00:38:38.827Z,8.47
2018-06-20T00:41:07.383Z,7.47
2018-06-20T00:43:36.006Z,7.83
2018-06-20T00:46:04.590Z,7.80
2018-06-20T00:48:33.007Z,7.20
2018-06-20T00:51:01.646Z,6.10
2018-06-20T00:53:30.228Z,6.27
2018-06-20T00:56:04.646Z,6.47
2018-06-20T00:58:33.236Z,6.70
2018-06-20T01:01:01.813Z,6.60
2018-06-20T01:03:30.292Z,6.23
2018-06-20T01:05:58.876Z,6.83
2018-06-20T01:08:27.358Z,6.70
2018-06-20T01:10:55.940Z,6.53
2018-06-20T01:13:24.621Z,6.53
2018-06-20T01:15:53.154Z,7.13
2018-06-20T01:18:21.691Z,7.57
2018-06-20T01:20:50.166Z,7.60
2018-06-20T01:23:18.453Z,8.00
2018-06-20T01:25:49.078Z,8.27
2018-06-20T01:28:18.145Z,7.67
2018-06-20T01:30:46.567Z,7.90
2018-06-20T01:33:15.037Z,7.20
2018-06-20T01:35:43.618Z,7.33
2018-06-20T01:38:12.093Z,8.07
2018-06-20T01:40:40.884Z,7.67
2018-06-20T01:43:09.464Z,7.87
2018-06-20T01:45:38.357Z,8.37
2018-06-20T01:48:07.141Z,8.37
2018-06-20T01:50:35.725Z,8.30
2018-06-20T01:53:04.308Z,8.27
2018-06-20T01:55:32.917Z,8.07
2018-06-20T01:58:01.708Z,7.50
2018-06-20T02:00:30.294Z,8.30
2018-06-20T02:02:58.524Z,8.60
2018-06-20T02:05:27.018Z,7.70
2018-06-20T02:07:55.601Z,7.87
2018-06-20T02:10:24.084Z,8.07
2018-06-20T02:12:52.666Z,8.50
2018-06-20T02:15:21.049Z,8.33
2018-06-20T02:17:49.731Z,8.37
2018-06-20T02:20:18.211Z,8.57
2018-06-20T02:22:46.591Z,8.40
2018-06-20T02:25:14.963Z,9.27
2018-06-20T02:27:43.548Z,8.73
2018-06-20T02:30:11.959Z,8.47
2018-06-20T02:32:40.818Z,7.97
2018-06-20T02:35:09.302Z,8.13
2018-06-20T02:37:37.784Z,8.13
2018-06-20T02:40:06.358Z,8.47
2018-06-20T02:42:34.943Z,7.53
2018-06-20T02:45:03.435Z,7.97
2018-06-20T02:47:37.086Z,7.63
2018-06-20T02:50:05.504Z,8.13
2018-06-20T02:52:34.101Z,7.80
2018-06-20T02:55:02.454Z,7.97
2018-06-20T02:57:31.047Z,7.47
2018-06-20T02:59:59.632Z,7.77
2018-06-20T03:02:28.217Z,7.07
2018-06-20T03:04:56.803Z,6.90
2018-06-20T03:07:25.273Z,7.50
2018-06-20T03:09:53.860Z,6.70
2018-06-20T03:12:22.341Z,7.40
2018-06-20T03:14:50.821Z,6.47
2018-06-20T03:17:19.305Z,6.87
2018-06-20T03:19:47.908Z,7.37
2018-06-20T03:22:16.367Z,7.30
2018-06-20T03:24:44.949Z,7.10
2018-06-20T03:27:13.356Z,7.13
2018-06-20T03:29:41.807Z,7.10
2018-06-20T03:32:10.294Z,6.90
2018-06-20T03:34:38.873Z,7.57
2018-06-20T03:37:07.454Z,7.13
2018-06-20T03:39:35.937Z,7.10
2018-06-20T03:42:04.413Z,6.73
2018-06-20T03:44:32.792Z,7.37
2018-06-20T03:47:01.278Z,7.20
2018-06-20T03:49:29.961Z,7.53
2018-06-20T03:51:58.468Z,8.00
2018-06-20T03:54:27.023Z,8.93
2018-06-20T03:56:55.447Z,9.20
2018-06-20T04:00:00.248Z,8.87
2018-06-20T04:02:33.734Z,8.67
2018-06-20T04:05:02.212Z,9.70
2018-06-20T04:07:30.691Z,8.77
2018-06-20T04:09:59.174Z,8.43
2018-06-20T04:12:27.658Z,9.30
2018-06-20T04:14:56.051Z,8.30
2018-06-20T04:17:24.717Z,8.43
2018-06-20T04:19:53.307Z,7.97
2018-06-20T04:22:21.702Z,8.10
2018-06-20T04:24:50.294Z,7.47
2018-06-20T04:27:18.743Z,7.73
2018-06-20T04:29:47.229Z,7.80
2018-06-20T04:32:15.637Z,7.77
2018-06-20T04:34:44.162Z,8.33
2018-06-20T04:37:12.561Z,7.47
2018-06-20T04:39:41.043Z,7.20
2018-06-20T04:42:09.837Z,7.13
2018-06-20T04:44:38.368Z,6.83
2018-06-20T04:47:06.995Z,7.30
2018-06-20T04:49:35.484Z,7.43
2018-06-20T04:52:03.908Z,6.67
2018-06-20T04:54:32.345Z,7.47
2018-06-20T04:57:01.022Z,8.07
2018-06-20T04:59:29.503Z,7.60
2018-06-20T05:01:58.067Z,6.97
2018-06-20T05:04:26.773Z,7.70
2018-06-20T05:06:55.253Z,6.83
2018-06-20T05:09:23.734Z,6.90
2018-06-20T05:11:52.108Z,7.40
2018-06-20T05:14:20.589Z,7.00
2018-06-20T05:16:49.274Z,7.85
2018-06-20T05:19:17.780Z,6.87
2018-06-20T05:21:46.141Z,7.20
2018-06-20T05:24:14.717Z,6.77
2018-06-20T05:26:43.300Z,7.37
2018-06-20T05:29:11.983Z,7.20
2018-06-20T05:31:40.518Z,7.27
2018-06-20T05:34:08.949Z,7.53
2018-06-20T05:36:37.630Z,7.33
2018-06-20T05:39:09.218Z,6.40
2018-06-20T05:41:37.799Z,6.60
2018-06-20T05:44:06.765Z,6.50
2018-06-20T05:46:35.447Z,7.27
2018-06-20T05:49:03.925Z,5.97
2018-06-20T05:51:32.510Z,6.33
2018-06-20T05:54:01.003Z,5.77
2018-06-20T05:56:29.468Z,5.53
2018-06-20T05:58:57.846Z,6.03
2018-06-20T06:01:26.431Z,6.10
2018-06-20T06:03:54.641Z,5.57
2018-06-20T06:08:58.120Z,5.27
2018-06-20T06:11:27.045Z,5.67
2018-06-20T06:13:55.452Z,5.77
2018-06-20T06:16:24.098Z,5.50
2018-06-20T06:18:52.463Z,5.80
2018-06-20T06:21:21.138Z,6.03
2018-06-20T06:23:49.821Z,6.07
2018-06-20T06:26:18.295Z,6.83
2018-06-20T06:28:46.886Z,6.70
2018-06-20T06:31:15.904Z,6.73
2018-06-20T06:33:44.463Z,7.30
2018-06-20T06:36:13.051Z,6.37
2018-06-20T06:38:41.732Z,6.13
2018-06-20T06:41:10.311Z,6.83
2018-06-20T06:43:38.895Z,7.13
2018-06-20T06:46:07.277Z,7.30
2018-06-20T06:48:35.857Z,7.30
2018-06-20T06:51:04.438Z,7.30
2018-06-20T06:53:32.922Z,6.67
2018-06-20T06:56:01.530Z,6.63
2018-06-20T06:58:30.101Z,6.90
2018-06-20T07:00:58.568Z,7.17
2018-06-20T07:03:27.253Z,6.37
2018-06-20T07:05:55.737Z,6.97
2018-06-20T07:08:24.315Z,7.23
2018-06-20T07:10:53.101Z,6.90
2018-06-20T07:13:21.786Z,7.27
2018-06-20T07:15:50.373Z,6.60
2018-06-20T07:18:18.951Z,6.80
2018-06-20T07:20:47.536Z,7.13
2018-06-20T07:23:15.923Z,7.87
2018-06-20T07:25:44.293Z,7.57
2018-06-20T07:28:12.880Z,7.90
2018-06-20T07:30:41.227Z,6.10
2018-06-20T07:33:09.631Z,6.57
2018-06-20T07:35:38.241Z,7.13
2018-06-20T07:38:06.694Z,8.20
2018-06-20T07:40:35.186Z,6.67
2018-06-20T07:43:03.649Z,8.10
2018-06-20T07:45:32.545Z,6.87
2018-06-20T07:48:01.020Z,7.40
2018-06-20T07:50:29.611Z,7.53
2018-06-20T07:52:58.204Z,7.47
2018-06-20T07:55:26.672Z,6.30
2018-06-20T07:57:55.051Z,7.03
2018-06-20T08:00:28.804Z,6.30
2018-06-20T08:03:08.097Z,6.67
2018-06-20T08:05:42.204Z,6.70
2018-06-20T08:08:16.210Z,6.50
2018-06-20T08:10:50.436Z,7.20
2018-06-20T08:13:24.241Z,7.17
2018-06-20T08:15:58.241Z,6.50
2018-06-20T08:18:32.048Z,5.87
2018-06-20T08:21:00.425Z,6.40
2018-06-20T08:23:29.038Z,7.43
2018-06-20T08:25:57.453Z,6.47
2018-06-20T08:28:26.181Z,6.30
2018-06-20T08:30:54.481Z,6.33
2018-06-20T08:33:22.829Z,7.47
2018-06-20T08:35:51.325Z,6.97
2018-06-20T08:38:19.893Z,6.93
2018-06-20T08:40:48.680Z,6.93
2018-06-20T08:43:17.053Z,7.03
2018-06-20T08:45:45.642Z,7.60
2018-06-20T08:48:14.123Z,7.23
2018-06-20T08:50:42.705Z,7.20
2018-06-20T08:53:11.379Z,7.57
2018-06-20T08:55:39.664Z,6.73
2018-06-20T08:58:08.145Z,6.83
2018-06-20T09:00:42.258Z,7.37
2018-06-20T09:03:10.842Z,6.27
2018-06-20T09:05:44.646Z,6.80
2018-06-20T09:08:18.506Z,7.43
2018-06-20T09:10:52.270Z,12.23
2018-06-20T09:13:25.964Z,8.43
2018-06-20T09:15:59.767Z,7.33
2018-06-20T09:18:33.571Z,7.23
2018-06-20T09:21:02.310Z,7.20
2018-06-20T09:23:30.943Z,8.07
2018-06-20T09:25:59.523Z,7.47
2018-06-20T09:28:28.057Z,7.10
2018-06-20T09:30:56.379Z,7.03
2018-06-20T09:33:24.781Z,8.03
2018-06-20T09:35:53.344Z,7.53
2018-06-20T09:38:21.829Z,7.47
2018-06-20T09:40:50.302Z,7.67
2018-06-20T09:43:18.890Z,7.47
2018-06-20T09:45:47.472Z,7.43
2018-06-20T09:48:15.851Z,8.63
2018-06-20T09:50:49.765Z,9.17
2018-06-20T09:53:18.153Z,8.90
2018-06-20T09:55:46.721Z,8.87
2018-06-20T09:58:15.317Z,9.40
2018-06-20T10:00:49.330Z,9.30
2018-06-20T10:03:23.427Z,8.73
2018-06-20T10:05:57.434Z,9.03
2018-06-20T10:08:31.075Z,9.70
2018-06-20T10:11:04.839Z,9.60
2018-06-20T10:13:50.114Z,8.80
2018-06-20T10:16:18.701Z,9.13
2018-06-20T10:18:47.074Z,9.37
2018-06-20T10:21:15.660Z,9.37
2018-06-20T10:23:44.142Z,9.80
2018-06-20T10:26:12.623Z,10.93
2018-06-20T10:28:41.098Z,11.17
2018-06-20T10:31:09.581Z,11.67
2018-06-20T10:33:37.970Z,10.67
2018-06-20T10:36:06.543Z,10.60
2018-06-20T10:38:35.124Z,10.67
2018-06-20T10:41:03.708Z,11.03
2018-06-20T10:43:32.293Z,11.03
2018-06-20T10:46:06.169Z,11.23
2018-06-20T10:48:34.782Z,11.10
2018-06-20T10:51:03.261Z,10.87
2018-06-20T10:53:31.744Z,10.67
2018-06-20T10:56:00.336Z,10.93
2018-06-20T10:58:34.333Z,11.13
2018-06-20T11:01:08.068Z,10.60
2018-06-20T11:03:42.050Z,10.27
2018-06-20T11:06:15.642Z,9.93
2018-06-20T11:08:49.555Z,10.20
2018-06-20T11:11:23.155Z,10.13
2018-06-20T11:13:51.653Z,10.43
2018-06-20T11:16:20.323Z,10.27
2018-06-20T11:18:52.489Z,10.23
2018-06-20T11:21:20.997Z,9.40
2018-06-20T11:23:49.655Z,9.13
2018-06-20T11:26:18.063Z,8.93
2018-06-20T11:28:46.716Z,9.20
2018-06-20T11:31:15.249Z,8.40
2018-06-20T11:33:43.782Z,8.83
2018-06-20T11:36:12.978Z,8.50
2018-06-20T11:38:41.352Z,8.23
2018-06-20T11:41:09.841Z,8.30
2018-06-20T11:43:38.526Z,9.30
2018-06-20T11:46:12.184Z,7.90
2018-06-20T11:48:40.709Z,8.37
2018-06-20T11:51:09.190Z,8.20
2018-06-20T11:53:37.775Z,9.63
2018-06-20T11:56:06.245Z,10.40
2018-06-20T11:58:40.264Z,9.23
2018-06-20T12:01:14.283Z,7.97
2018-06-20T12:03:48.115Z,10.33
2018-06-20T12:07:20.967Z,8.87
2018-06-20T12:09:54.780Z,8.37
2018-06-20T12:12:28.680Z,8.83
2018-06-20T12:15:02.384Z,8.20
2018-06-20T12:17:36.095Z,8.37
2018-06-20T12:20:10.000Z,8.53
2018-06-20T12:22:43.751Z,8.57
2018-06-20T12:25:17.914Z,8.43
2018-06-20T12:27:51.625Z,8.23
2018-06-20T12:30:25.451Z,8.60
2018-06-20T12:32:58.991Z,8.43
2018-06-20T12:35:32.828Z,8.27
2018-06-20T12:38:06.641Z,9.70
2018-06-20T12:40:40.440Z,9.57
2018-06-20T12:43:14.245Z,8.77
2018-06-20T12:45:43.031Z,9.07
2018-06-20T12:48:18.170Z,9.60
2018-06-20T12:50:46.749Z,9.20
2018-06-20T12:53:15.127Z,9.27
2018-06-20T12:55:43.714Z,9.90
2018-06-20T12:58:12.195Z,9.70
2018-06-20T13:00:40.777Z,9.97
2018-06-20T13:03:09.260Z,9.60
2018-06-20T13:05:37.838Z,9.97
2018-06-20T13:08:06.425Z,10.50
2018-06-20T13:10:34.801Z,10.30
2018-06-20T13:13:03.383Z,11.13
2018-06-20T13:15:31.909Z,11.97
2018-06-20T13:18:00.445Z,12.10
2018-06-20T13:20:29.139Z,11.60
2018-06-20T13:22:57.635Z,11.70
2018-06-20T13:25:26.198Z,10.53
2018-06-20T13:27:54.576Z,10.70
2018-06-20T13:30:23.156Z,9.63
2018-06-20T13:32:57.064Z,10.57
2018-06-20T13:35:30.891Z,11.43
2018-06-20T13:38:04.674Z,10.57
2018-06-20T13:40:38.790Z,11.43
2018-06-20T13:43:12.595Z,10.77
2018-06-20T13:45:46.397Z,10.40
2018-06-20T13:48:20.411Z,10.40
2018-06-20T13:50:48.785Z,11.27
2018-06-20T13:53:17.181Z,11.37
2018-06-20T13:55:45.544Z,11.07
2018-06-20T13:58:15.047Z,11.27
2018-06-20T14:00:43.632Z,10.47
2018-06-20T14:03:12.001Z,11.67
2018-06-20T14:05:40.594Z,11.63
2018-06-20T14:08:09.177Z,11.60
2018-06-20T14:10:37.662Z,10.40
2018-06-20T14:13:06.155Z,11.40
2018-06-20T14:15:34.718Z,11.80
2018-06-20T14:18:03.300Z,11.03
2018-06-20T14:20:37.108Z,11.60
2018-06-20T14:23:05.586Z,10.93
2018-06-20T14:25:33.994Z,11.10
2018-06-20T14:28:02.548Z,11.77
2018-06-20T14:30:36.557Z,12.27
2018-06-20T14:33:10.260Z,11.70
2018-06-20T14:35:43.865Z,10.90
2018-06-20T14:38:17.666Z,9.93
2018-06-20T14:40:51.530Z,10.43
2018-06-20T14:43:25.391Z,11.57
2018-06-20T14:45:59.185Z,11.83
2018-06-20T14:48:36.472Z,11.37
2018-06-20T14:51:05.161Z,11.63
2018-06-20T14:53:34.145Z,12.30
2018-06-20T14:56:02.735Z,12.97
2018-06-20T14:58:31.520Z,13.37
2018-06-20T15:01:00.120Z,13.20
2018-06-20T15:03:28.589Z,19.60
2018-06-20T15:05:57.272Z,12.27
2018-06-20T15:08:25.760Z,12.80
2018-06-20T15:10:54.332Z,12.07
2018-06-20T15:13:22.920Z,12.50
2018-06-20T15:15:51.397Z,12.10
2018-06-20T15:18:19.877Z,11.77
2018-06-20T15:20:48.489Z,11.87
2018-06-20T15:23:16.938Z,11.57
2018-06-20T15:25:50.746Z,10.83
2018-06-20T15:29:24.677Z,10.67
2018-06-20T15:31:58.220Z,10.70
2018-06-20T15:34:31.998Z,11.33
2018-06-20T15:37:05.758Z,10.23
2018-06-20T15:39:34.263Z,9.70
2018-06-20T15:42:02.625Z,9.57
2018-06-20T15:44:31.212Z,8.70
2018-06-20T15:47:01.746Z,9.13
2018-06-20T15:49:30.322Z,8.87
2018-06-20T15:51:59.232Z,8.43
2018-06-20T15:54:27.797Z,8.87
2018-06-20T15:56:56.278Z,8.53
2018-06-20T15:59:24.858Z,7.67
2018-06-20T16:01:53.444Z,8.63
2018-06-20T16:04:22.338Z,7.73
2018-06-20T16:06:50.790Z,7.63
2018-06-20T16:09:24.522Z,8.03
2018-06-20T16:11:53.100Z,8.13
2018-06-20T16:14:21.685Z,9.20
2018-06-20T16:16:50.278Z,9.67
2018-06-20T16:19:24.276Z,9.60
2018-06-20T16:21:57.980Z,9.70
2018-06-20T16:24:31.785Z,10.33
2018-06-20T16:27:05.589Z,10.77
2018-06-20T16:29:39.599Z,10.73
2018-06-20T16:32:07.999Z,10.70
2018-06-20T16:34:36.457Z,10.60
2018-06-20T16:37:05.038Z,9.07
2018-06-20T16:39:33.519Z,9.77
2018-06-20T16:42:02.111Z,10.63
2018-06-20T16:44:31.097Z,9.73
2018-06-20T16:46:59.677Z,11.00
2018-06-20T16:49:28.364Z,10.90
2018-06-20T16:51:56.946Z,9.50
2018-06-20T16:54:25.529Z,9.57
2018-06-20T16:56:53.922Z,10.47
2018-06-20T16:59:22.382Z,11.27
2018-06-20T17:01:56.296Z,10.63
2018-06-20T17:04:24.880Z,10.83
2018-06-20T17:06:53.501Z,10.90
2018-06-20T17:09:22.047Z,10.40
2018-06-20T17:11:55.858Z,10.87
2018-06-20T17:14:29.771Z,10.33
2018-06-20T17:17:03.461Z,10.93
2018-06-20T17:19:37.266Z,10.60
2018-06-20T17:22:11.077Z,9.70
2018-06-20T17:24:44.890Z,11.83
2018-06-20T17:27:13.396Z,11.97
2018-06-20T17:29:42.060Z,10.53
2018-06-20T17:32:10.626Z,10.17
2018-06-20T17:34:39.108Z,10.73
2018-06-20T17:37:07.601Z,10.60
2018-06-20T17:39:36.172Z,11.43
2018-06-20T17:42:04.756Z,10.10
2018-06-20T17:44:33.337Z,11.10
2018-06-20T17:47:01.825Z,10.80
2018-06-20T17:49:30.194Z,10.20
2018-06-20T17:51:58.779Z,11.10
2018-06-20T17:54:27.463Z,11.80
2018-06-20T17:56:56.051Z,9.67
2018-06-20T17:59:24.630Z,10.63
2018-06-20T18:01:53.215Z,10.37
2018-06-20T18:04:27.020Z,10.27
2018-06-20T18:07:00.925Z,10.93
2018-06-20T18:09:34.938Z,10.47
2018-06-20T18:12:08.844Z,10.67
2018-06-20T18:14:42.752Z,10.60
2018-06-20T18:17:11.267Z,10.20
2018-06-20T18:19:39.818Z,11.47
2018-06-20T18:22:08.314Z,12.63
2018-06-20T18:24:37.390Z,11.27
2018-06-20T18:27:06.083Z,12.00
2018-06-20T18:29:34.558Z,11.50
2018-06-20T18:32:03.262Z,11.67
2018-06-20T18:34:31.927Z,12.60
2018-06-20T18:37:00.408Z,11.40
2018-06-20T18:40:05.854Z,11.23
2018-06-20T18:42:34.775Z,12.50
2018-06-20T18:45:03.223Z,15.10
2018-06-20T18:50:11.369Z,11.23
2018-06-20T18:52:40.034Z,12.13
2018-06-20T18:55:08.675Z,15.30
2018-06-20T18:57:42.627Z,13.13
2018-06-20T19:00:16.451Z,14.40
2018-06-20T19:02:50.181Z,15.03
2018-06-20T19:05:23.948Z,15.57
2018-06-20T19:07:57.744Z,17.10
2018-06-20T19:10:26.329Z,18.33
2018-06-20T19:12:54.823Z,19.17
2018-06-20T19:15:23.393Z,18.67
2018-06-20T19:17:52.285Z,19.50
2018-06-20T19:20:20.765Z,16.90
2018-06-20T19:22:49.346Z,17.37
2018-06-20T19:25:17.829Z,16.50
2018-06-20T19:27:46.408Z,16.90
2018-06-20T19:30:14.993Z,17.40
2018-06-20T19:32:43.650Z,17.43
2018-06-20T19:35:12.162Z,16.33
2018-06-20T19:37:40.641Z,16.57
2018-06-20T19:40:09.222Z,17.13
2018-06-20T19:42:37.812Z,18.03
2018-06-20T19:45:06.435Z,17.40
2018-06-20T19:47:34.973Z,22.00
2018-06-20T19:50:03.349Z,15.97
2018-06-20T19:52:31.754Z,20.80
2018-06-20T19:55:00.311Z,19.43
2018-06-20T19:57:28.693Z,20.80
2018-06-20T19:59:57.265Z,19.63
2018-06-20T20:02:25.777Z,18.03
2018-06-20T20:04:54.334Z,20.80
2018-06-20T20:07:23.224Z,18.27
2018-06-20T20:09:51.909Z,21.13
2018-06-20T20:12:20.389Z,18.40
2018-06-20T20:14:48.924Z,17.90
2018-06-20T20:17:18.173Z,18.73
2018-06-20T20:19:47.958Z,18.73
2018-06-20T20:22:16.588Z,18.60
2018-06-20T20:24:45.148Z,18.13
2018-06-20T20:27:14.074Z,19.47
2018-06-20T20:29:42.635Z,16.50
2018-06-20T20:32:11.317Z,16.70
2018-06-20T20:34:39.637Z,16.83
2018-06-20T20:37:08.483Z,21.63
2018-06-20T20:39:36.981Z,18.60
2018-06-20T20:42:05.449Z,15.80
2018-06-20T20:44:34.020Z,17.77
2018-06-20T20:47:02.703Z,15.53
2018-06-20T20:49:31.315Z,16.13
2018-06-20T20:52:00.874Z,17.97
2018-06-20T20:54:29.372Z,18.30
2018-06-20T20:56:58.785Z,18.10
2018-06-20T20:59:27.994Z,17.50
2018-06-20T21:01:57.716Z,17.47
2018-06-20T21:04:26.187Z,18.63
2018-06-20T21:06:54.642Z,18.60
2018-06-20T21:09:22.975Z,19.27
2018-06-20T21:11:51.504Z,18.43
2018-06-20T21:14:20.090Z,21.30
2018-06-20T21:16:48.668Z,25.40
2018-06-20T21:19:17.030Z,28.53
2018-06-20T21:21:45.437Z,26.57
2018-06-20T21:24:13.905Z,27.10
2018-06-20T21:26:42.390Z,27.63
2018-06-20T21:29:10.996Z,26.17
2018-06-20T21:31:39.453Z,25.97
2018-06-20T21:34:08.032Z,29.60
2018-06-20T21:36:36.616Z,27.07
2018-06-20T21:39:07.036Z,26.77
2018-06-20T21:41:35.626Z,26.57
2018-06-20T21:44:04.019Z,27.77
2018-06-20T21:46:32.583Z,29.23
2018-06-20T21:49:01.282Z,27.30
2018-06-20T21:51:29.750Z,27.97
2018-06-20T21:53:58.337Z,28.57
2018-06-20T21:56:26.813Z,27.50
2018-06-20T21:58:55.426Z,28.27
2018-06-20T22:01:23.881Z,28.13
2018-06-20T22:03:52.664Z,28.37
2018-06-20T22:06:21.149Z,29.27
2018-06-20T22:08:49.427Z,29.60
2018-06-20T22:11:18.008Z,29.70
2018-06-20T22:13:46.598Z,29.00
2018-06-20T22:16:14.962Z,29.87
2018-06-20T22:18:43.548Z,28.50
2018-06-20T22:21:12.030Z,29.37
2018-06-20T22:23:40.510Z,28.40
2018-06-20T22:26:09.195Z,28.60
2018-06-20T22:28:37.787Z,27.40
2018-06-20T22:31:06.671Z,26.77
2018-06-20T22:33:35.352Z,26.97
2018-06-20T22:36:03.835Z,26.40
2018-06-20T22:38:32.416Z,27.03
2018-06-20T22:41:00.896Z,25.90
2018-06-20T22:43:29.482Z,27.20
2018-06-20T22:45:57.962Z,24.60
2018-06-20T22:48:26.545Z,25.03
2018-06-20T22:50:55.025Z,25.30
2018-06-20T22:53:23.609Z,23.90
2018-06-20T22:55:52.015Z,22.70
2018-06-20T22:58:20.568Z,23.30
2018-06-20T23:00:49.047Z,21.23
2018-06-20T23:03:17.434Z,23.50
2018-06-20T23:05:46.111Z,23.23
2018-06-20T23:08:14.510Z,21.87
2018-06-20T23:10:42.944Z,23.17
2018-06-20T23:13:11.553Z,22.57
2018-06-20T23:15:40.034Z,22.10
2018-06-20T23:18:08.719Z,22.17
2018-06-20T23:20:37.302Z,22.63
2018-06-20T23:23:05.618Z,22.23
2018-06-20T23:25:34.169Z,20.97
2018-06-20T23:28:02.744Z,20.67
2018-06-20T23:30:31.129Z,20.67
2018-06-20T23:32:59.500Z,20.97
2018-06-20T23:35:27.985Z,19.33
2018-06-20T23:37:56.456Z,20.10
2018-06-20T23:40:25.044Z,20.00
2018-06-20T23:42:53.627Z,19.83
2018-06-20T23:45:22.071Z,20.10
2018-06-20T23:47:50.589Z,19.87
2018-06-20T23:50:19.170Z,19.60
2018-06-20T23:52:47.599Z,19.97
2018-06-20T23:55:15.922Z,19.67
2018-06-20T23:57:44.510Z,18.90
